Latest Weather Observations for Telfer

IDW60801

Issued at 11:03 pm WST Monday 31 August 2026 (issued every 10 minutes, with the page automatically refreshed every 10 minutes)

About weather observations | Map of weather stations | Latest weather observations for WA | Other Formats
Station Details ID: 013030 Name: TELFER AERO Lat: -21.71 Lon: 122.23 Height: 291.9 m
Data from the previous 72 hours. | See also: Recent months at Telfer
Date/Time
WST
Temp
°C
App
Temp
°C
Dew
Point
°C
Rel
Hum
%
Delta-T
°C
Wind Press
QNH
hPa
Press
MSL
hPa
Rain since
9am
mm
Dir  Spd
km/h
Gust
km/h
Spd
kts
Gust
kts
31/11:00pm 25.8 24.1 1.8 21 11.6 CALM 0 0 0 0 1018.8 1017.8 0.0
31/10:30pm 25.6 23.5 1.7 21 11.6 ENE 2 6 1 3 1018.9 1017.9 0.0
31/10:00pm 24.3 21.9 1.9 23 10.8 ENE 4 7 2 4 1019.0 1018.0 0.0
31/09:30pm 25.1 23.5 2.5 23 11.1 CALM 0 0 0 0 1019.0 1018.0 0.0
31/09:00pm 25.4 23.8 2.2 22 11.3 CALM 0 0 0 0 1019.1 1018.1 0.0
31/08:30pm 27.2 24.7 1.6 19 12.5 NW 4 6 2 3 1019.0 1018.0 0.0
31/08:00pm 28.9 25.8 1.4 17 13.5 NW 7 9 4 5 1018.9 1017.9 0.0
31/07:30pm 27.9 26.1 1.4 18 13.0 CALM 0 0 0 0 1018.7 1017.7 0.0
31/07:00pm 28.9 27.1 1.4 17 13.5 CALM 0 6 0 3 1018.3 1017.3 0.0
31/06:30pm 29.9 27.0 1.4 16 14.1 NNW 6 7 3 4 1017.9 1016.9 0.0
31/06:00pm 31.5 27.9 0.8 14 15.2 NNW 9 9 5 5 1017.4 1016.4 0.0
31/05:30pm 33.3 29.4 1.2 13 16.2 NNW 11 19 6 10 1017.2 1016.2 0.0
31/05:00pm 34.2 29.5 0.8 12 16.8 N 15 20 8 11 1017.0 1016.0 0.0
31/04:30pm 34.9 30.6 1.3 12 17.2 NNW 13 20 7 11 1016.9 1015.9 0.0
31/04:00pm 35.2 31.0 1.5 12 17.3 NNW 13 24 7 13 1016.9 1015.9 0.0
31/03:30pm 35.5 31.3 1.8 12 17.4 NNW 13 24 7 13 1016.9 1015.9 0.0
31/03:00pm 36.4 32.0 2.5 12 17.8 N 15 28 8 15 1017.1 1016.1 0.0
31/02:30pm 35.1 30.1 1.5 12 17.2 NNW 17 28 9 15 1017.1 1016.1 0.0
31/02:00pm 35.3 30.3 1.6 12 17.3 NNW 17 30 9 16 1017.2 1016.2 0.0
31/01:30pm 36.2 31.3 2.3 12 17.7 N 17 24 9 13 1017.6 1016.6 0.0
31/01:00pm 35.2 29.3 1.5 12 17.3 NNE 22 37 12 20 1017.9 1016.9 0.0
31/12:30pm 34.7 28.3 1.1 12 17.1 N 24 33 13 18 1018.2 1017.2 0.0
31/12:00pm 34.1 28.2 1.8 13 16.5 N 22 32 12 17 1018.6 1017.6 0.0
31/11:30am 34.2 28.0 1.9 13 16.6 NNE 24 37 13 20 1019.1 1018.1 0.0
31/11:00am 33.6 27.4 2.4 14 16.1 NNE 24 32 13 17 1019.5 1018.5 0.0
31/10:30am 32.9 26.8 2.9 15 15.5 NNE 24 33 13 18 1019.9 1019.0 0.0
31/10:00am 31.8 25.8 5.3 19 14.1 NNE 26 37 14 20 1020.2 1019.3 0.0
31/09:30am 30.8 27.5 6.6 22 13.2 NNE 13 20 7 11 1020.5 1019.5 0.0
31/09:00am 29.0 26.2 7.0 25 11.9 N 11 15 6 8 1020.5 1019.5 0.0
31/08:30am 27.7 24.7 7.5 28 11.0 NNE 13 19 7 10 1020.5 1019.5 0.0
31/08:00am 25.6 23.4 7.7 32 9.6 NNW 9 13 5 7 1020.1 1019.2 0.0
31/07:30am 23.6 21.8 7.3 35 8.6 NNW 6 9 3 5 1019.9 1019.0 0.0
31/07:00am 21.1 20.2 6.2 38 7.6 CALM 0 0 0 0 1019.7 1018.8 0.0
31/06:30am 19.3 17.0 4.6 38 7.2 NNE 6 7 3 4 1019.4 1018.4 0.0
31/06:00am 18.3 16.4 2.6 35 7.3 E 2 6 1 3 1019.1 1018.1 0.0
31/05:30am 17.4 14.5 2.6 37 6.9 SE 7 9 4 5 1018.8 1017.8 0.0
31/05:00am 18.3 16.7 2.6 35 7.3 CALM 0 0 0 0 1018.4 1017.4 0.0
31/04:30am 18.9 17.3 2.7 34 7.6 CALM 0 0 0 0 1018.1 1017.1 0.0
31/04:00am 19.0 17.4 2.4 33 7.7 CALM 0 0 0 0 1018.0 1017.0 0.0
31/03:30am 19.6 17.6 2.5 32 8.0 SSE 2 9 1 5 1018.0 1017.0 0.0
31/03:00am 20.7 17.9 2.0 29 8.8 N 6 7 3 4 1017.9 1016.9 0.0
31/02:30am 22.0 19.1 2.7 28 9.3 NW 7 9 4 5 1017.9 1016.9 0.0
31/02:00am 24.3 21.2 5.6 30 9.6 WNW 11 15 6 8 1017.9 1016.9 0.0
31/01:30am 22.5 19.6 1.5 25 9.9 WNW 6 7 3 4 1018.1 1017.1 0.0
31/01:00am 21.4 18.4 1.7 27 9.2 NNW 7 13 4 7 1018.2 1017.2 0.0
31/12:30am 23.8 19.6 1.4 23 10.6 WNW 13 17 7 9 1018.4 1017.4 0.0
31/12:00am 23.1 19.7 2.0 25 10.1 NW 9 13 5 7 1018.6 1017.6 0.0
 
Date/Time
WST
Temp
°C
App
Temp
°C
Dew
Point
°C
Rel
Hum
%
Delta-T
°C
Wind Press
QNH
hPa
Press
MSL
hPa
Rain since
9am
mm
Dir  Spd
km/h
Gust
km/h
Spd
kts
Gust
kts
30/11:30pm 23.8 21.9 0.8 22 10.8 CALM 0 0 0 0 1018.6 1017.6 0.0
30/11:00pm 24.5 22.6 0.8 21 11.2 CALM 0 0 0 0 1018.6 1017.6 0.0
30/10:30pm 25.4 23.5 0.8 20 11.7 CALM 0 0 0 0 1018.8 1017.8 0.0
30/10:00pm 26.3 24.5 0.9 19 12.1 CALM 0 0 0 0 1018.9 1017.9 0.0
30/09:30pm 26.1 24.2 0.7 19 12.1 CALM 0 0 0 0 1019.0 1018.0 0.0
30/09:00pm 26.3 24.5 0.9 19 12.1 CALM 0 0 0 0 1019.0 1018.0 0.0
30/08:30pm 26.8 24.9 0.5 18 12.6 CALM 0 0 0 0 1018.8 1017.8 0.0
30/08:00pm 27.4 25.4 0.2 17 12.9 CALM 0 0 0 0 1018.5 1017.5 0.0
30/07:30pm 28.0 26.0 -0.1 16 13.4 CALM 0 0 0 0 1018.0 1017.0 0.0
30/07:00pm 27.9 26.0 0.6 17 13.1 CALM 0 0 0 0 1017.6 1016.6 0.0
30/06:30pm 29.2 26.1 -0.1 15 14.1 NNE 6 9 3 5 1017.2 1016.2 0.0
30/06:00pm 31.1 27.7 -0.5 13 15.3 N 7 11 4 6 1016.8 1015.8 0.0
30/05:30pm 32.9 28.4 -0.2 12 16.3 N 13 17 7 9 1016.3 1015.3 0.0
30/05:00pm 34.0 29.8 -0.6 11 17.0 N 11 19 6 10 1016.0 1015.0 0.0
30/04:30pm 34.6 29.4 -0.1 11 17.3 N 17 28 9 15 1015.7 1014.7 0.0
30/04:00pm 34.7 29.9 -0.1 11 17.3 N 15 20 8 11 1015.5 1014.5 0.0
30/03:30pm 35.2 29.5 0.3 11 17.6 NNW 20 32 11 17 1015.6 1014.6 0.0
30/03:00pm 35.4 30.6 0.5 11 17.6 NNE 15 32 8 17 1015.8 1014.8 0.0
30/02:30pm 35.3 30.1 0.4 11 17.6 N 17 24 9 13 1015.8 1014.8 0.0
30/02:00pm 34.9 28.9 1.3 12 17.1 N 22 37 12 20 1016.0 1015.0 0.0
30/01:30pm 34.5 29.1 1.0 12 17.0 NNE 19 33 10 18 1016.4 1015.4 0.0
30/01:00pm 34.5 28.9 1.0 12 17.0 NNE 20 33 11 18 1016.8 1015.8 0.0
30/12:30pm 35.0 29.1 1.4 12 17.2 NNE 22 35 12 19 1017.3 1016.3 0.0
30/12:00pm 34.4 28.2 2.0 13 16.7 NE 24 37 13 20 1017.9 1016.9 0.0
30/11:30am 34.1 28.2 1.8 13 16.5 NNE 22 35 12 19 1018.5 1017.5 0.0
30/11:00am 33.4 27.2 2.3 14 16.0 NE 24 37 13 20 1019.0 1018.0 0.0
30/10:30am 32.7 26.0 1.7 14 15.7 NE 26 41 14 22 1019.4 1018.4 0.0
30/10:00am 31.4 25.3 2.6 16 14.7 NE 24 37 13 20 1019.8 1018.9 0.0
30/09:30am 29.8 24.7 2.9 18 13.7 ENE 19 28 10 15 1020.0 1019.1 0.0
30/09:00am 28.5 23.4 4.1 21 12.5 NE 20 30 11 16 1020.0 1019.1 0.0
30/08:30am 27.4 22.8 3.8 22 12.0 NE 17 32 9 17 1019.9 1019.0 0.0
30/08:00am 26.7 23.0 4.5 24 11.3 NE 13 19 7 10 1019.9 1019.0 0.0
30/07:30am 25.3 22.2 5.5 28 10.2 NE 11 15 6 8 1019.7 1018.8 0.0
30/07:00am 21.9 20.1 8.1 41 7.3 E 7 9 4 5 1019.6 1018.7 0.0
30/06:30am 19.6 17.5 8.3 48 5.9 E 9 11 5 6 1019.3 1018.3 0.0
30/06:00am 18.4 15.9 8.4 52 5.2 ESE 11 13 6 7 1019.1 1018.1 0.0
30/05:30am 20.7 16.6 8.0 44 6.7 E 19 24 10 13 1018.5 1017.5 0.0
30/05:00am 19.0 15.6 9.2 53 5.2 ESE 17 20 9 11 1018.0 1017.0 0.0
30/04:30am 19.5 15.8 9.4 52 5.4 ENE 19 22 10 12 1018.1 1017.1 0.0
30/04:00am 20.0 16.3 9.6 51 5.6 E 19 20 10 11 1018.0 1017.0 0.0
30/03:30am 20.6 17.4 9.8 50 5.9 E 17 22 9 12 1017.9 1016.9 0.0
30/03:00am 21.1 17.5 10.0 49 6.1 ENE 19 22 10 12 1017.8 1016.8 0.0
30/02:30am 21.9 18.3 9.8 46 6.6 E 19 24 10 13 1017.9 1016.9 0.0
30/02:00am 22.7 18.5 9.8 44 7.1 E 22 28 12 15 1018.2 1017.2 0.0
30/01:30am 23.5 19.8 10.2 43 7.4 E 20 32 11 17 1018.3 1017.3 0.0
30/01:00am 23.7 20.1 10.7 44 7.3 ESE 20 26 11 14 1018.5 1017.5 0.0
30/12:30am 24.1 20.3 11.1 44 7.4 ESE 22 30 12 16 1018.6 1017.6 0.0
30/12:00am 24.3 20.9 11.3 44 7.4 SSE 20 28 11 15 1018.6 1017.6 0.0
 
Date/Time
WST
Temp
°C
App
Temp
°C
Dew
Point
°C
Rel
Hum
%
Delta-T
°C
Wind Press
QNH
hPa
Press
MSL
hPa
Rain since
9am
mm
Dir  Spd
km/h
Gust
km/h
Spd
kts
Gust
kts
29/11:30pm 24.6 21.4 11.2 43 7.6 SSE 19 28 10 15 1018.8 1017.8 0.0
29/11:00pm 25.2 21.5 11.4 42 7.9 SSE 22 28 12 15 1018.8 1017.8 0.0
29/10:30pm 25.9 21.0 11.3 40 8.4 S 28 35 15 19 1018.7 1017.7 0.0
29/10:00pm 26.2 22.5 11.5 40 8.5 SSE 22 28 12 15 1018.8 1017.8 0.0
29/09:30pm 26.8 22.3 11.3 38 8.9 S 26 33 14 18 1018.7 1017.7 0.0
29/09:00pm 27.1 23.0 11.6 38 9.0 S 24 33 13 18 1018.5 1017.5 0.0
29/08:30pm 27.2 24.0 11.3 37 9.2 SSW 19 24 10 13 1018.5 1017.5 0.0
29/08:00pm 28.4 24.9 10.1 32 10.4 SSW 19 28 10 15 1018.1 1017.1 0.0
29/07:30pm 28.5 27.6 6.0 24 12.0 CALM 0 0 0 0 1017.8 1016.8 0.0
29/07:00pm 29.8 29.0 6.5 23 12.6 CALM 0 0 0 0 1017.5 1016.5 0.0
29/06:30pm 30.6 29.6 5.8 21 13.3 CALM 0 0 0 0 1017.1 1016.1 0.0
29/06:00pm 31.0 29.7 6.1 21 13.4 NNW 2 7 1 4 1016.9 1015.9 0.0
29/05:30pm 31.9 29.5 5.4 19 14.2 NNW 7 9 4 5 1016.5 1015.5 0.0
29/05:00pm 32.6 29.4 5.2 18 14.7 N 11 17 6 9 1016.3 1015.3 0.0
29/04:30pm 33.2 30.1 5.7 18 14.9 NNE 11 17 6 9 1016.1 1015.1 0.0
29/04:00pm 32.9 28.8 4.6 17 15.0 NNE 15 19 8 10 1016.1 1015.1 0.0
29/03:30pm 33.7 28.7 3.5 15 15.9 N 19 26 10 14 1016.1 1015.1 0.0
29/03:00pm 33.9 30.1 3.7 15 15.9 NNE 13 24 7 13 1016.3 1015.3 0.0
29/02:30pm 33.1 28.9 3.9 16 15.4 NNE 15 20 8 11 1016.5 1015.5 0.0
29/02:00pm 33.6 31.9 8.3 21 14.3 NE 7 13 4 7 1016.9 1015.9 0.0
29/01:30pm 32.6 29.3 8.1 22 13.8 E 15 22 8 12 1017.4 1016.4 0.0
29/01:00pm 32.7 31.1 8.9 23 13.5 NNW 7 11 4 6 1017.7 1016.7 0.0
29/12:30pm 33.0 30.3 9.1 23 13.7 ENE 13 24 7 13 1018.2 1017.2 0.0
29/12:00pm 31.9 29.7 9.4 25 12.8 ENE 11 17 6 9 1018.7 1017.7 0.0
29/11:30am 31.1 28.5 9.3 26 12.4 ESE 13 28 7 15 1019.3 1018.3 0.0
29/11:00am 30.6 27.4 10.0 28 11.8 ESE 17 24 9 13 1019.5 1018.5 0.0
29/10:30am 29.5 27.8 11.1 32 10.7 E 11 17 6 9 1020.5 1019.5 0.0
29/10:00am 27.4 25.6 11.0 36 9.4 ENE 11 15 6 8 1020.9 1019.9 0.0
29/09:30am 27.7 26.0 11.3 36 9.5 ESE 11 17 6 9 1020.9 1019.9 0.0
29/09:00am 25.9 24.2 12.4 43 7.9 SE 13 20 7 11 1020.9 1019.9 0.4
29/08:30am 25.2 23.2 12.8 46 7.3 SE 15 17 8 9 1020.8 1019.8 0.4
29/08:00am 22.8 21.1 12.4 52 6.0 SSE 13 15 7 8 1020.5 1019.5 0.4
29/07:30am 23.0 20.8 12.0 50 6.3 SE 15 19 8 10 1020.0 1019.1 0.4
29/07:00am 21.6 20.3 12.5 56 5.2 SE 11 13 6 7 1019.7 1018.8 0.4
29/06:30am 20.1 18.4 12.6 62 4.3 SE 13 15 7 8 1019.2 1018.2 0.4
29/06:00am 18.2 17.4 12.9 71 3.0 SE 9 11 5 6 1018.9 1017.9 0.4
29/05:30am 18.3 16.6 12.3 68 3.4 ESE 13 15 7 8 1018.5 1017.5 0.4
29/05:00am 19.7 17.5 12.2 62 4.2 SE 15 17 8 9 1018.1 1017.1 0.4
29/04:30am 18.4 16.4 12.6 69 3.3 SE 15 15 8 8 1018.2 1017.2 0.4
29/04:00am 18.7 17.5 12.9 69 3.3 SE 11 13 6 7 1018.0 1017.0 0.4
29/03:30am 20.5 20.1 13.0 62 4.3 SSE 7 9 4 5 1017.9 1016.9 0.4
29/03:00am 21.3 19.6 12.4 57 5.1 SSW 13 15 7 8 1017.9 1016.9 0.4
29/02:30am 18.8 19.0 14.7 77 2.4 SSE 7 15 4 8 1017.9 1016.9 0.4
29/02:00am 20.3 20.5 14.2 68 3.6 NW 6 7 3 4 1018.1 1017.1 0.4
29/01:30am 20.4 21.5 14.5 69 3.5 N 2 7 1 4 1018.2 1017.2 0.4
29/01:00am 21.4 22.1 14.6 65 4.0 SW 4 11 2 6 1018.3 1017.3 0.4
29/12:30am 22.8 22.7 13.3 55 5.6 S 6 7 3 4 1018.3 1017.3 0.4
29/12:00am 22.0 22.1 15.6 67 3.9 SSE 9 11 5 6 1018.5 1017.5 0.4
 
Date/Time
WST
Temp
°C
App
Temp
°C
Dew
Point
°C
Rel
Hum
%
Delta-T
°C
Wind Press
QNH
hPa
Press
MSL
hPa
Rain since
9am
mm
Dir  Spd
km/h
Gust
km/h
Spd
kts
Gust
kts
28/11:30pm 22.6 22.8 15.7 65 4.2 E 9 13 5 7 1018.7 1017.7 0.4

Other formats

Comma delimited format used in spreadsheet applications
http://www.bom.gov.au/fwo/IDW60801/IDW60801.94319.axf

JavaScript Object Notation format (JSON) in row-major order
http://www.bom.gov.au/fwo/IDW60801/IDW60801.94319.json

Data quality

Most of these data are generated automatically and are frequently updated. Quality checks on data are not normally performed. It is possible for incorrect values to appear. Refer to information at About Latest Weather Observations and please check the disclaimer before using these data.